createdAt,value
2019-02-15T00:01:19.111Z,2.40
2019-02-15T00:03:49.094Z,2.50
2019-02-15T00:06:19.103Z,2.50
2019-02-15T00:08:49.183Z,2.40
2019-02-15T00:11:19.319Z,2.40
2019-02-15T00:13:49.322Z,2.40
2019-02-15T00:16:19.423Z,2.40
2019-02-15T00:18:58.722Z,2.40
2019-02-15T00:21:31.530Z,2.30
2019-02-15T00:24:01.509Z,2.30
2019-02-15T00:26:31.515Z,2.20
2019-02-15T00:29:01.854Z,2.20
2019-02-15T00:31:32.833Z,2.20
2019-02-15T00:34:02.940Z,2.10
2019-02-15T00:36:33.166Z,2.20
2019-02-15T00:39:03.168Z,2.30
2019-02-15T00:41:35.345Z,2.30
2019-02-15T00:44:05.346Z,2.40
2019-02-15T00:46:53.286Z,2.40
2019-02-15T00:49:40.847Z,2.40
2019-02-15T00:52:32.779Z,2.40
2019-02-15T00:55:21.890Z,2.50
2019-02-15T00:58:01.942Z,2.50
2019-02-15T01:00:51.399Z,2.60
2019-02-15T01:03:39.484Z,2.60
2019-02-15T01:06:28.442Z,2.60
2019-02-15T01:09:20.467Z,2.70
2019-02-15T01:12:15.700Z,2.70
2019-02-15T01:14:45.753Z,2.80
2019-02-15T01:17:15.766Z,2.80
2019-02-15T01:19:45.758Z,2.90
2019-02-15T01:22:15.850Z,2.80
2019-02-15T01:24:45.890Z,2.80
2019-02-15T01:27:41.276Z,2.70
2019-02-15T01:30:28.967Z,2.70
2019-02-15T01:33:24.238Z,2.70
2019-02-15T01:36:14.756Z,2.70
2019-02-15T01:38:55.662Z,2.60
2019-02-15T01:41:33.678Z,2.60
2019-02-15T01:44:28.298Z,2.60
2019-02-15T01:47:20.809Z,2.50
2019-02-15T01:49:50.882Z,2.50
2019-02-15T01:52:20.857Z,2.40
2019-02-15T01:54:50.870Z,2.40
2019-02-15T01:57:20.877Z,2.40
2019-02-15T01:59:51.289Z,2.40
2019-02-15T02:02:22.978Z,2.30
2019-02-15T02:04:52.988Z,2.30
2019-02-15T02:07:23.244Z,2.30
2019-02-15T02:09:55.137Z,2.20
2019-02-15T02:12:25.118Z,2.20
2019-02-15T02:14:55.097Z,2.10
2019-02-15T02:17:25.154Z,2.10
2019-02-15T02:19:55.129Z,2.40
2019-02-15T02:22:25.138Z,2.50
2019-02-15T02:24:55.110Z,2.60
2019-02-15T02:27:25.186Z,2.80
2019-02-15T02:29:55.167Z,3.00
2019-02-15T02:32:25.161Z,3.00
2019-02-15T02:34:55.210Z,2.90
2019-02-15T02:37:25.219Z,2.80
2019-02-15T02:39:55.235Z,2.60
2019-02-15T02:42:25.382Z,2.50
2019-02-15T02:44:55.373Z,2.40
2019-02-15T02:47:25.450Z,2.30
2019-02-15T02:49:55.431Z,2.20
2019-02-15T02:52:25.515Z,2.10
2019-02-15T02:54:55.499Z,2.00
2019-02-15T02:57:25.572Z,2.00
2019-02-15T02:59:55.630Z,2.00
2019-02-15T03:02:25.635Z,2.00
2019-02-15T03:04:55.646Z,1.90
2019-02-15T03:07:25.679Z,1.90
2019-02-15T03:09:55.688Z,1.90
2019-02-15T03:12:25.775Z,1.80
2019-02-15T03:14:56.698Z,1.80
2019-02-15T03:17:26.763Z,1.80
2019-02-15T03:19:56.751Z,1.80
2019-02-15T03:22:26.770Z,1.70
2019-02-15T03:24:56.839Z,1.70
2019-02-15T03:27:26.970Z,1.60
2019-02-15T03:29:56.958Z,1.60
2019-02-15T03:32:26.980Z,1.60
2019-02-15T03:34:57.034Z,1.60
2019-02-15T03:37:44.866Z,1.50
2019-02-15T03:40:27.371Z,1.50
2019-02-15T03:42:57.371Z,1.50
2019-02-15T03:45:27.429Z,1.50
2019-02-15T03:47:58.631Z,1.50
2019-02-15T03:50:28.611Z,1.50
2019-02-15T03:52:58.673Z,1.50
2019-02-15T03:55:29.082Z,1.50
2019-02-15T03:57:59.092Z,1.40
2019-02-15T04:00:29.070Z,1.50
2019-02-15T04:02:59.090Z,1.50
2019-02-15T04:05:29.075Z,1.50
2019-02-15T04:07:59.079Z,1.50
2019-02-15T04:10:29.134Z,1.50
2019-02-15T04:12:59.134Z,1.40
2019-02-15T04:15:29.128Z,1.40
2019-02-15T04:17:59.201Z,1.40
2019-02-15T04:20:29.284Z,1.40
2019-02-15T04:22:59.323Z,1.40
2019-02-15T04:25:29.297Z,1.40
2019-02-15T04:27:59.344Z,1.40
2019-02-15T04:30:30.159Z,1.40
2019-02-15T04:33:00.243Z,1.30
2019-02-15T04:35:31.006Z,1.30
2019-02-15T04:38:01.800Z,1.30
2019-02-15T04:40:31.800Z,1.30
2019-02-15T04:43:01.892Z,1.30
2019-02-15T04:45:32.041Z,1.40
2019-02-15T04:48:02.063Z,1.40
2019-02-15T04:50:32.043Z,1.40
2019-02-15T04:53:03.121Z,1.30
2019-02-15T04:55:33.639Z,1.20
2019-02-15T04:58:03.645Z,1.10
2019-02-15T05:00:34.583Z,1.10
2019-02-15T05:03:05.160Z,1.00
2019-02-15T05:05:35.226Z,1.00
2019-02-15T05:08:05.313Z,0.90
2019-02-15T05:10:35.366Z,0.90
2019-02-15T05:13:05.392Z,0.80
2019-02-15T05:15:35.636Z,0.80
2019-02-15T05:18:05.641Z,0.80
2019-02-15T05:20:35.629Z,0.80
2019-02-15T05:23:06.579Z,0.80
2019-02-15T05:25:36.560Z,0.80
2019-02-15T05:28:08.869Z,0.80
2019-02-15T05:30:38.342Z,0.80
2019-02-15T05:33:08.355Z,0.80
2019-02-15T05:35:38.337Z,0.80
2019-02-15T05:38:08.603Z,0.70
2019-02-15T05:40:38.707Z,0.70
2019-02-15T05:43:08.710Z,0.70
2019-02-15T05:45:38.678Z,0.70
2019-02-15T05:48:08.683Z,0.70
2019-02-15T05:50:40.614Z,0.70
2019-02-15T05:53:10.636Z,0.70
2019-02-15T05:55:42.330Z,0.70
2019-02-15T05:58:12.415Z,0.70
2019-02-15T06:00:42.456Z,0.60
2019-02-15T06:03:13.844Z,0.60
2019-02-15T06:05:44.037Z,0.60
2019-02-15T06:08:14.115Z,0.60
2019-02-15T06:10:44.106Z,0.60
2019-02-15T06:13:14.119Z,0.60
2019-02-15T06:15:44.116Z,0.60
2019-02-15T06:18:14.254Z,0.50
2019-02-15T06:20:44.246Z,0.50
2019-02-15T06:23:14.366Z,0.40
2019-02-15T06:25:44.410Z,0.40
2019-02-15T06:28:14.698Z,0.40
2019-02-15T06:30:44.674Z,0.40
2019-02-15T06:33:14.768Z,0.30
2019-02-15T06:35:44.770Z,0.30
2019-02-15T06:38:14.758Z,0.30
2019-02-15T06:40:55.348Z,0.30
2019-02-15T06:43:26.183Z,0.40
2019-02-15T06:45:56.216Z,0.40
2019-02-15T06:48:27.239Z,0.30
2019-02-15T06:50:57.813Z,0.30
2019-02-15T06:53:27.834Z,0.40
2019-02-15T06:55:57.856Z,0.40
2019-02-15T06:58:28.078Z,0.40
2019-02-15T07:01:15.889Z,0.40
2019-02-15T07:04:03.526Z,0.40
2019-02-15T07:06:33.542Z,0.40
2019-02-15T07:09:04.614Z,0.30
2019-02-15T07:11:34.631Z,0.40
2019-02-15T07:14:04.624Z,0.50
2019-02-15T07:16:34.624Z,0.60
2019-02-15T07:19:04.602Z,0.60
2019-02-15T07:21:34.618Z,0.70
2019-02-15T07:24:04.606Z,0.80
2019-02-15T07:26:34.619Z,0.90
2019-02-15T07:29:04.594Z,1.00
2019-02-15T07:31:34.590Z,1.00
2019-02-15T07:34:04.872Z,1.10
2019-02-15T07:36:34.946Z,1.20
2019-02-15T07:39:05.894Z,1.20
2019-02-15T07:41:35.915Z,1.30
2019-02-15T07:44:05.901Z,1.50
2019-02-15T07:46:35.933Z,1.60
2019-02-15T07:49:06.003Z,1.70
2019-02-15T07:51:36.088Z,1.70
2019-02-15T07:54:07.154Z,1.70
2019-02-15T07:56:37.229Z,1.80
2019-02-15T07:59:07.226Z,1.80
2019-02-15T08:01:37.289Z,1.80
2019-02-15T08:04:07.260Z,1.90
2019-02-15T08:06:37.340Z,2.10
2019-02-15T08:09:10.795Z,2.20
2019-02-15T08:11:40.910Z,2.30
2019-02-15T08:14:14.941Z,2.40
2019-02-15T08:16:42.683Z,2.50
2019-02-15T08:19:12.982Z,2.60
2019-02-15T08:21:42.994Z,2.60
2019-02-15T08:24:13.127Z,2.70
2019-02-15T08:26:44.907Z,2.80
2019-02-15T08:29:14.981Z,2.90
2019-02-15T08:31:46.088Z,2.90
2019-02-15T08:34:16.112Z,3.00
2019-02-15T08:36:46.206Z,3.10
2019-02-15T08:39:16.287Z,3.30
2019-02-15T08:42:00.195Z,3.50
2019-02-15T08:44:19.446Z,3.70
2019-02-15T08:46:49.555Z,4.00
2019-02-15T08:49:19.542Z,4.20
2019-02-15T08:51:49.560Z,4.30
2019-02-15T08:54:19.679Z,4.40
2019-02-15T08:56:49.782Z,4.60
2019-02-15T08:59:19.834Z,4.70
2019-02-15T09:02:18.183Z,4.80
2019-02-15T09:04:48.338Z,4.90
2019-02-15T09:07:18.347Z,4.90
2019-02-15T09:09:48.342Z,5.00
2019-02-15T09:12:18.364Z,5.30
2019-02-15T09:14:48.342Z,5.50
2019-02-15T09:17:18.379Z,5.60
2019-02-15T09:19:48.731Z,5.70
2019-02-15T09:22:21.638Z,5.80
2019-02-15T09:24:52.455Z,5.90
2019-02-15T09:27:38.990Z,6.20
2019-02-15T09:30:11.134Z,6.40
2019-02-15T09:32:41.158Z,6.40
2019-02-15T09:35:12.143Z,6.50
2019-02-15T09:37:42.154Z,6.60
2019-02-15T09:40:12.246Z,6.70
2019-02-15T09:42:42.298Z,6.90
2019-02-15T09:45:13.355Z,7.10
2019-02-15T09:47:43.395Z,7.30
2019-02-15T09:50:14.355Z,7.30
2019-02-15T09:52:44.386Z,7.40
2019-02-15T09:55:14.449Z,7.60
2019-02-15T09:57:45.328Z,7.70
2019-02-15T10:00:16.311Z,7.80
2019-02-15T10:02:46.428Z,8.00
2019-02-15T10:05:16.418Z,8.00
2019-02-15T10:07:46.430Z,8.10
2019-02-15T10:10:17.366Z,8.30
2019-02-15T10:12:47.463Z,8.40
2019-02-15T10:15:17.458Z,8.60
2019-02-15T10:17:47.486Z,8.80
2019-02-15T10:20:17.502Z,9.00
2019-02-15T10:22:47.522Z,9.20
2019-02-15T10:25:17.594Z,9.30
2019-02-15T10:27:47.618Z,9.50
2019-02-15T10:30:17.618Z,9.60
2019-02-15T10:32:47.630Z,9.70
2019-02-15T10:35:18.686Z,9.90
2019-02-15T10:37:48.698Z,10.10
2019-02-15T10:40:20.534Z,10.20
2019-02-15T10:42:52.410Z,10.30
2019-02-15T10:45:22.678Z,10.40
2019-02-15T10:47:52.767Z,10.40
2019-02-15T10:50:22.754Z,10.40
2019-02-15T10:52:52.807Z,10.40
2019-02-15T10:55:23.635Z,10.40
2019-02-15T10:57:53.647Z,10.50
2019-02-15T11:00:23.665Z,10.50
2019-02-15T11:02:53.669Z,10.60
2019-02-15T11:05:23.658Z,10.70
2019-02-15T11:07:53.686Z,10.90
2019-02-15T11:10:23.840Z,10.90
2019-02-15T11:12:53.846Z,11.00
2019-02-15T11:15:25.694Z,11.10
2019-02-15T11:17:55.787Z,11.30
2019-02-15T11:20:26.835Z,11.50
2019-02-15T11:22:56.926Z,11.60
2019-02-15T11:25:27.421Z,11.70
2019-02-15T11:27:57.855Z,11.70
2019-02-15T11:31:05.189Z,11.70
2019-02-15T11:33:35.490Z,11.70
2019-02-15T11:36:05.882Z,11.60
2019-02-15T11:38:35.946Z,11.70
2019-02-15T11:41:11.174Z,11.70
2019-02-15T11:43:39.814Z,11.80
2019-02-15T11:46:09.868Z,11.80
2019-02-15T11:48:41.101Z,11.80
2019-02-15T11:51:11.087Z,12.00
2019-02-15T11:53:41.113Z,12.00
2019-02-15T11:56:11.164Z,12.10
2019-02-15T11:58:42.025Z,12.20
2019-02-15T12:01:12.137Z,12.30
2019-02-15T12:03:42.238Z,12.30
2019-02-15T12:06:12.295Z,12.40
2019-02-15T12:08:42.328Z,12.50
2019-02-15T12:11:15.878Z,12.50
2019-02-15T12:13:45.883Z,12.60
2019-02-15T12:16:15.859Z,12.60
2019-02-15T12:18:45.925Z,12.70
2019-02-15T12:21:17.050Z,12.70
2019-02-15T12:23:47.130Z,12.90
2019-02-15T12:26:17.142Z,13.10
2019-02-15T12:28:47.145Z,13.20
2019-02-15T12:31:17.222Z,13.20
2019-02-15T12:33:47.302Z,13.30
2019-02-15T12:36:17.884Z,13.20
2019-02-15T12:38:48.065Z,13.20
2019-02-15T12:41:18.105Z,13.20
2019-02-15T12:43:48.199Z,13.20
2019-02-15T12:46:18.270Z,13.30
2019-02-15T12:48:49.729Z,13.30
2019-02-15T12:51:19.799Z,13.20
2019-02-15T12:53:49.842Z,13.20
2019-02-15T12:56:19.847Z,13.10
2019-02-15T12:58:51.096Z,13.10
2019-02-15T13:01:21.095Z,13.10
2019-02-15T13:03:51.153Z,13.20
2019-02-15T13:06:28.355Z,13.30
2019-02-15T13:08:53.225Z,13.50
2019-02-15T13:11:25.605Z,13.50
2019-02-15T13:13:55.681Z,13.60
2019-02-15T13:16:25.730Z,13.60
2019-02-15T13:18:57.095Z,13.70
2019-02-15T13:21:27.276Z,13.50
2019-02-15T13:23:58.275Z,13.50
2019-02-15T13:26:28.641Z,13.60
2019-02-15T13:28:58.826Z,13.70
2019-02-15T13:31:28.839Z,13.70
2019-02-15T13:33:58.852Z,13.70
2019-02-15T13:36:28.952Z,13.70
2019-02-15T13:38:59.543Z,13.70
2019-02-15T13:41:29.625Z,13.70
2019-02-15T13:43:59.842Z,13.70
2019-02-15T13:46:33.164Z,13.70
2019-02-15T13:49:02.890Z,13.70
2019-02-15T13:51:32.912Z,13.70
2019-02-15T13:54:06.050Z,13.60
2019-02-15T13:56:40.451Z,13.60
2019-02-15T13:59:10.061Z,13.70
2019-02-15T14:01:40.066Z,13.80
2019-02-15T14:04:10.058Z,13.80
2019-02-15T14:06:40.309Z,13.80
2019-02-15T14:09:10.778Z,13.80
2019-02-15T14:11:40.797Z,13.70
2019-02-15T14:14:10.796Z,13.80
2019-02-15T14:16:40.883Z,13.90
2019-02-15T14:19:10.876Z,14.00
2019-02-15T14:21:44.502Z,14.00
2019-02-15T14:24:12.673Z,14.00
2019-02-15T14:26:42.689Z,14.10
2019-02-15T14:29:12.681Z,14.20
2019-02-15T14:31:42.864Z,14.30
2019-02-15T14:34:12.871Z,14.30
2019-02-15T14:36:42.938Z,14.30
2019-02-15T14:39:12.998Z,14.30
2019-02-15T14:41:43.721Z,14.30
2019-02-15T14:44:14.103Z,14.20
2019-02-15T14:46:44.487Z,14.20
2019-02-15T14:49:14.474Z,14.20
2019-02-15T14:51:47.186Z,14.30
2019-02-15T14:54:20.906Z,14.50
2019-02-15T14:56:50.924Z,14.80
2019-02-15T14:59:20.940Z,15.00
2019-02-15T15:01:51.027Z,15.10
2019-02-15T15:04:26.529Z,15.10
2019-02-15T15:06:56.631Z,15.10
2019-02-15T15:09:26.835Z,15.10
2019-02-15T15:11:56.902Z,15.10
2019-02-15T15:14:26.957Z,14.90
2019-02-15T15:16:57.038Z,15.00
2019-02-15T15:19:27.150Z,15.10
2019-02-15T15:21:57.155Z,15.10
2019-02-15T15:24:28.490Z,14.90
2019-02-15T15:26:58.634Z,14.70
2019-02-15T15:29:29.834Z,14.50
2019-02-15T15:31:59.871Z,14.30
2019-02-15T15:34:30.874Z,14.10
2019-02-15T15:37:00.976Z,13.90
2019-02-15T15:39:31.071Z,13.70
2019-02-15T15:42:02.810Z,13.50
2019-02-15T15:44:32.842Z,13.30
2019-02-15T15:47:03.238Z,13.10
2019-02-15T15:49:33.264Z,12.90
2019-02-15T15:52:04.708Z,12.70
2019-02-15T15:54:34.734Z,12.50
2019-02-15T15:57:06.354Z,12.40
2019-02-15T15:59:36.522Z,12.30
2019-02-15T16:02:08.006Z,12.30
2019-02-15T16:04:38.090Z,12.10
2019-02-15T16:07:08.319Z,12.10
2019-02-15T16:09:38.507Z,11.90
2019-02-15T16:12:08.495Z,11.80
2019-02-15T16:14:38.614Z,11.70
2019-02-15T16:17:08.607Z,11.60
2019-02-15T16:19:49.435Z,11.50
2019-02-15T16:22:11.483Z,11.40
2019-02-15T16:24:42.431Z,11.30
2019-02-15T16:27:12.421Z,11.00
2019-02-15T16:29:42.792Z,10.70
2019-02-15T16:32:12.846Z,10.50
2019-02-15T16:34:42.929Z,10.20
2019-02-15T16:37:13.018Z,10.00
2019-02-15T16:39:43.892Z,9.80
2019-02-15T16:42:14.010Z,9.60
2019-02-15T16:44:44.200Z,9.50
2019-02-15T16:47:14.331Z,9.30
2019-02-15T16:49:44.349Z,9.10
2019-02-15T16:52:14.662Z,9.00
2019-02-15T16:54:45.885Z,8.90
2019-02-15T16:57:15.897Z,8.90
2019-02-15T16:59:45.953Z,8.70
2019-02-15T17:02:16.043Z,8.60
2019-02-15T17:04:46.337Z,8.40
2019-02-15T17:07:16.589Z,8.30
2019-02-15T17:09:46.601Z,8.20
2019-02-15T17:12:16.982Z,8.10
2019-02-15T17:14:47.036Z,8.00
2019-02-15T17:17:17.049Z,7.90
2019-02-15T17:19:47.054Z,7.80
2019-02-15T17:22:17.091Z,7.70
2019-02-15T17:24:47.241Z,7.70
2019-02-15T17:27:17.242Z,7.60
2019-02-15T17:29:47.235Z,7.60
2019-02-15T17:32:17.240Z,7.60
2019-02-15T17:34:49.429Z,7.50
2019-02-15T17:37:22.033Z,7.40
2019-02-15T17:39:52.132Z,7.30
2019-02-15T17:42:22.151Z,7.20
2019-02-15T17:44:52.458Z,7.10
2019-02-15T17:47:22.779Z,7.10
2019-02-15T17:49:52.889Z,7.20
2019-02-15T17:52:23.707Z,7.20
2019-02-15T17:54:53.702Z,7.20
2019-02-15T17:57:23.838Z,7.10
2019-02-15T17:59:54.675Z,7.10
2019-02-15T18:02:24.996Z,7.10
2019-02-15T18:04:56.057Z,7.10
2019-02-15T18:07:26.449Z,7.10
2019-02-15T18:09:56.825Z,7.10
2019-02-15T18:12:26.907Z,7.10
2019-02-15T18:14:57.245Z,7.00
2019-02-15T18:17:27.222Z,6.90
2019-02-15T18:19:57.239Z,6.80
2019-02-15T18:22:27.514Z,6.80
2019-02-15T18:25:12.557Z,6.70
2019-02-15T18:27:42.545Z,6.60
2019-02-15T18:30:12.781Z,6.50
2019-02-15T18:32:49.939Z,6.60
2019-02-15T18:35:20.024Z,6.50
2019-02-15T18:37:50.094Z,6.40
2019-02-15T18:40:20.107Z,6.40
2019-02-15T18:42:50.218Z,6.30
2019-02-15T18:45:20.239Z,6.30
2019-02-15T18:47:50.391Z,6.20
2019-02-15T18:50:20.443Z,6.20
2019-02-15T18:52:50.460Z,6.20
2019-02-15T18:55:20.531Z,6.20
2019-02-15T18:57:50.526Z,6.20
2019-02-15T19:00:20.712Z,6.30
2019-02-15T19:02:50.945Z,6.20
2019-02-15T19:05:20.969Z,6.20
2019-02-15T19:07:51.054Z,6.20
2019-02-15T19:10:21.146Z,6.20
2019-02-15T19:12:52.150Z,6.20
2019-02-15T19:15:22.174Z,6.20
2019-02-15T19:17:52.161Z,6.20
2019-02-15T19:20:22.154Z,6.20
2019-02-15T19:22:53.773Z,6.20
2019-02-15T19:25:23.793Z,6.20
2019-02-15T19:27:53.771Z,6.20
2019-02-15T19:30:24.911Z,6.20
2019-02-15T19:32:55.102Z,6.10
2019-02-15T19:35:25.117Z,6.00
2019-02-15T19:37:55.114Z,5.90
2019-02-15T19:40:25.128Z,5.90
2019-02-15T19:42:55.525Z,5.80
2019-02-15T19:45:25.584Z,5.70
2019-02-15T19:47:55.644Z,5.70
2019-02-15T19:50:25.657Z,5.70
2019-02-15T19:52:55.804Z,5.70
2019-02-15T19:55:26.199Z,5.60
2019-02-15T19:57:56.267Z,5.70
2019-02-15T20:00:26.375Z,5.60
2019-02-15T20:02:56.456Z,5.60
2019-02-15T20:05:26.483Z,5.50
2019-02-15T20:07:56.637Z,5.50
2019-02-15T20:10:26.827Z,5.50
2019-02-15T20:12:56.908Z,5.50
2019-02-15T20:15:26.934Z,5.50
2019-02-15T20:17:57.807Z,5.50
2019-02-15T20:20:27.858Z,5.50
2019-02-15T20:22:58.926Z,5.50
2019-02-15T20:25:28.963Z,5.50
2019-02-15T20:27:58.974Z,5.40
2019-02-15T20:30:29.026Z,5.40
2019-02-15T20:32:59.226Z,5.30
2019-02-15T20:35:29.551Z,5.30
2019-02-15T20:38:00.165Z,5.30
2019-02-15T20:40:30.486Z,5.20
2019-02-15T20:43:00.810Z,5.20
2019-02-15T20:45:30.830Z,5.10
2019-02-15T20:48:00.863Z,5.00
2019-02-15T20:50:31.339Z,4.90
2019-02-15T20:53:01.678Z,4.90
2019-02-15T20:55:31.774Z,4.90
2019-02-15T20:58:01.843Z,5.00
2019-02-15T21:00:31.855Z,5.00
2019-02-15T21:03:02.306Z,5.00
2019-02-15T21:05:32.386Z,4.90
2019-02-15T21:08:02.378Z,4.90
2019-02-15T21:10:32.470Z,4.80
2019-02-15T21:13:02.453Z,4.80
2019-02-15T21:15:32.523Z,4.80
2019-02-15T21:18:02.620Z,4.70
2019-02-15T21:20:32.734Z,4.70
2019-02-15T21:23:02.766Z,4.70
2019-02-15T21:25:33.147Z,4.70
2019-02-15T21:28:03.194Z,4.70
2019-02-15T21:30:34.154Z,4.60
2019-02-15T21:33:04.141Z,4.60
2019-02-15T21:35:34.130Z,4.60
2019-02-15T21:38:04.147Z,4.60
2019-02-15T21:40:34.503Z,4.50
2019-02-15T21:43:04.559Z,4.50
2019-02-15T21:45:34.551Z,4.50
2019-02-15T21:48:04.566Z,4.40
2019-02-15T21:50:34.650Z,4.40
2019-02-15T21:53:08.377Z,4.40
2019-02-15T21:55:38.750Z,4.30
2019-02-15T21:58:08.782Z,4.30
2019-02-15T22:00:38.872Z,4.30
2019-02-15T22:03:09.007Z,4.20
2019-02-15T22:05:39.120Z,4.20
2019-02-15T22:08:09.138Z,4.20
2019-02-15T22:10:40.006Z,4.20
2019-02-15T22:13:10.001Z,4.20
2019-02-15T22:15:41.099Z,4.20
2019-02-15T22:18:11.919Z,4.20
2019-02-15T22:20:41.973Z,4.20
2019-02-15T22:23:11.961Z,4.10
2019-02-15T22:25:42.102Z,4.10
2019-02-15T22:28:12.150Z,4.10
2019-02-15T22:30:42.152Z,4.10
2019-02-15T22:33:12.306Z,4.00
2019-02-15T22:35:42.322Z,4.10
2019-02-15T22:38:12.874Z,4.00
2019-02-15T22:40:44.117Z,4.00
2019-02-15T22:43:21.348Z,4.00
2019-02-15T22:45:52.406Z,3.90
2019-02-15T22:48:22.434Z,3.90
2019-02-15T22:50:52.426Z,3.80
2019-02-15T22:53:22.458Z,3.90
2019-02-15T22:55:52.743Z,3.90
2019-02-15T22:58:22.723Z,4.00
2019-02-15T23:00:59.853Z,4.00
2019-02-15T23:03:32.638Z,4.00
2019-02-15T23:06:02.706Z,4.00
2019-02-15T23:08:32.719Z,4.00
2019-02-15T23:11:02.697Z,4.00
2019-02-15T23:13:32.791Z,4.10
2019-02-15T23:16:02.798Z,4.10
2019-02-15T23:18:33.151Z,4.10
2019-02-15T23:21:03.151Z,4.20
2019-02-15T23:23:33.232Z,4.10
2019-02-15T23:26:03.256Z,4.10
2019-02-15T23:28:35.453Z,4.20
2019-02-15T23:31:05.453Z,4.20
2019-02-15T23:33:35.479Z,4.20
2019-02-15T23:36:05.551Z,4.30
2019-02-15T23:38:35.683Z,4.30
2019-02-15T23:41:08.942Z,4.30
2019-02-15T23:43:39.042Z,4.30
2019-02-15T23:46:09.090Z,4.30
2019-02-15T23:48:40.079Z,4.30
2019-02-15T23:51:10.497Z,4.30
2019-02-15T23:53:40.611Z,4.20
2019-02-15T23:56:10.647Z,4.20
2019-02-15T23:58:43.287Z,4.20
